Sequim, Washington
Current Conditions -  °F | °C
As of 10:53 AM on Friday 31 Oct 2014 (Local Time) from KCLM Reporting Station
Overcast Overcast  
Wind Chill: 51°   Ceiling: 9500
Heat Index: 51°   Visibility: 10mi
Dew Point: 46°   Wind: 6mph
Humidity: 83%   Direction: 240°WSW
Pressure: 29.77"   Gusts: NA
Location:  48.08°N, 123.1°W
Report Text: KCLM 311753Z AUTO 24005KT 10SM SCT049 OVC095 11/08 A2977 RMK AO2 SLP081 60027 T01060078 10111 20100 53011
Loading
Personal Weather Stations






























Interactive Weather Map
Tropical Storm Tracking
New forecast layout! Learn more

10-Day Weather Forecast

Advertisements
Track Severe Weather on mobile